sensor_id;sensor_type;location;lat;lon;timestamp;P1;durP1;ratioP1;P2;durP2;ratioP2
34491;SDS011;20737;49.908;8.126;2022-08-18T00:00:44;13.85;;;10.27;;
34491;SDS011;20737;49.908;8.126;2022-08-18T00:03:11;9.70;;;8.68;;
34491;SDS011;20737;49.908;8.126;2022-08-18T00:05:38;12.88;;;8.35;;
34491;SDS011;20737;49.908;8.126;2022-08-18T00:08:05;9.38;;;8.40;;
34491;SDS011;20737;49.908;8.126;2022-08-18T00:10:32;10.15;;;8.10;;
34491;SDS011;20737;49.908;8.126;2022-08-18T00:12:59;11.07;;;8.82;;
34491;SDS011;20737;49.908;8.126;2022-08-18T00:15:26;9.00;;;8.10;;
34491;SDS011;20737;49.908;8.126;2022-08-18T00:17:54;10.32;;;8.73;;
34491;SDS011;20737;49.908;8.126;2022-08-18T00:20:21;10.93;;;9.05;;
34491;SDS011;20737;49.908;8.126;2022-08-18T00:22:49;9.57;;;8.57;;
34491;SDS011;20737;49.908;8.126;2022-08-18T00:25:17;9.55;;;8.55;;
34491;SDS011;20737;49.908;8.126;2022-08-18T00:27:45;11.18;;;8.48;;
34491;SDS011;20737;49.908;8.126;2022-08-18T00:30:12;9.65;;;8.65;;
34491;SDS011;20737;49.908;8.126;2022-08-18T00:32:43;9.60;;;8.48;;
34491;SDS011;20737;49.908;8.126;2022-08-18T00:35:14;8.75;;;7.85;;
34491;SDS011;20737;49.908;8.126;2022-08-18T00:37:45;11.10;;;8.15;;
34491;SDS011;20737;49.908;8.126;2022-08-18T00:40:14;9.23;;;8.00;;
34491;SDS011;20737;49.908;8.126;2022-08-18T00:42:44;12.10;;;9.02;;
34491;SDS011;20737;49.908;8.126;2022-08-18T00:45:14;11.32;;;8.18;;
34491;SDS011;20737;49.908;8.126;2022-08-18T00:47:43;13.30;;;8.82;;
34491;SDS011;20737;49.908;8.126;2022-08-18T00:50:11;10.77;;;9.20;;
34491;SDS011;20737;49.908;8.126;2022-08-18T00:52:42;12.30;;;8.73;;
34491;SDS011;20737;49.908;8.126;2022-08-18T00:55:12;13.57;;;9.15;;
34491;SDS011;20737;49.908;8.126;2022-08-18T00:57:42;10.45;;;8.68;;
34491;SDS011;20737;49.908;8.126;2022-08-18T01:00:09;9.95;;;8.68;;
34491;SDS011;20737;49.908;8.126;2022-08-18T01:02:38;11.95;;;8.35;;
34491;SDS011;20737;49.908;8.126;2022-08-18T01:05:11;8.90;;;7.70;;
34491;SDS011;20737;49.908;8.126;2022-08-18T01:07:46;10.43;;;7.80;;
34491;SDS011;20737;49.908;8.126;2022-08-18T01:10:15;9.85;;;8.75;;
34491;SDS011;20737;49.908;8.126;2022-08-18T01:12:44;9.82;;;8.40;;
34491;SDS011;20737;49.908;8.126;2022-08-18T01:15:13;12.00;;;9.15;;
34491;SDS011;20737;49.908;8.126;2022-08-18T01:17:41;8.90;;;8.00;;
34491;SDS011;20737;49.908;8.126;2022-08-18T01:20:29;10.60;;;8.57;;
34491;SDS011;20737;49.908;8.126;2022-08-18T01:23:19;9.20;;;8.00;;
34491;SDS011;20737;49.908;8.126;2022-08-18T01:25:47;10.48;;;8.35;;
34491;SDS011;20737;49.908;8.126;2022-08-18T01:28:28;10.60;;;9.13;;
34491;SDS011;20737;49.908;8.126;2022-08-18T01:30:57;9.13;;;8.15;;
34491;SDS011;20737;49.908;8.126;2022-08-18T01:33:26;13.55;;;8.88;;
34491;SDS011;20737;49.908;8.126;2022-08-18T01:35:57;11.57;;;8.93;;
34491;SDS011;20737;49.908;8.126;2022-08-18T01:38:26;9.05;;;8.15;;
34491;SDS011;20737;49.908;8.126;2022-08-18T01:40:56;10.50;;;8.77;;
34491;SDS011;20737;49.908;8.126;2022-08-18T01:43:23;12.20;;;9.00;;
34491;SDS011;20737;49.908;8.126;2022-08-18T01:45:50;12.40;;;9.30;;
34491;SDS011;20737;49.908;8.126;2022-08-18T01:48:16;9.90;;;8.85;;
34491;SDS011;20737;49.908;8.126;2022-08-18T01:50:43;9.88;;;8.05;;
34491;SDS011;20737;49.908;8.126;2022-08-18T01:53:13;10.68;;;9.55;;
34491;SDS011;20737;49.908;8.126;2022-08-18T01:55:42;11.55;;;9.90;;
34491;SDS011;20737;49.908;8.126;2022-08-18T01:58:09;9.75;;;8.75;;
34491;SDS011;20737;49.908;8.126;2022-08-18T02:00:37;12.75;;;9.85;;
34491;SDS011;20737;49.908;8.126;2022-08-18T02:03:07;9.52;;;8.63;;
34491;SDS011;20737;49.908;8.126;2022-08-18T02:05:37;10.63;;;8.85;;
34491;SDS011;20737;49.908;8.126;2022-08-18T02:08:07;11.18;;;9.25;;
34491;SDS011;20737;49.908;8.126;2022-08-18T02:10:34;11.25;;;9.68;;
34491;SDS011;20737;49.908;8.126;2022-08-18T02:13:02;10.77;;;8.77;;
34491;SDS011;20737;49.908;8.126;2022-08-18T02:15:29;12.55;;;9.55;;
34491;SDS011;20737;49.908;8.126;2022-08-18T02:17:57;11.60;;;9.82;;
34491;SDS011;20737;49.908;8.126;2022-08-18T02:20:23;10.52;;;9.07;;
34491;SDS011;20737;49.908;8.126;2022-08-18T02:22:50;10.43;;;9.32;;
34491;SDS011;20737;49.908;8.126;2022-08-18T02:25:17;12.63;;;9.32;;
34491;SDS011;20737;49.908;8.126;2022-08-18T02:27:45;14.02;;;9.00;;
34491;SDS011;20737;49.908;8.126;2022-08-18T02:30:14;10.45;;;9.32;;
34491;SDS011;20737;49.908;8.126;2022-08-18T02:32:42;9.75;;;8.40;;
34491;SDS011;20737;49.908;8.126;2022-08-18T02:35:09;13.15;;;10.00;;
34491;SDS011;20737;49.908;8.126;2022-08-18T02:37:37;10.40;;;8.98;;
34491;SDS011;20737;49.908;8.126;2022-08-18T02:40:04;9.73;;;8.73;;
34491;SDS011;20737;49.908;8.126;2022-08-18T02:42:31;10.50;;;8.65;;
34491;SDS011;20737;49.908;8.126;2022-08-18T02:44:58;9.85;;;8.30;;
34491;SDS011;20737;49.908;8.126;2022-08-18T02:47:26;10.50;;;7.43;;
34491;SDS011;20737;49.908;8.126;2022-08-18T02:49:53;10.70;;;7.80;;
34491;SDS011;20737;49.908;8.126;2022-08-18T02:52:20;9.10;;;7.47;;
34491;SDS011;20737;49.908;8.126;2022-08-18T02:54:47;11.00;;;8.40;;
34491;SDS011;20737;49.908;8.126;2022-08-18T02:57:14;10.43;;;8.23;;
34491;SDS011;20737;49.908;8.126;2022-08-18T02:59:40;9.48;;;8.45;;
34491;SDS011;20737;49.908;8.126;2022-08-18T03:02:08;9.18;;;7.80;;
34491;SDS011;20737;49.908;8.126;2022-08-18T03:04:36;8.88;;;7.95;;
34491;SDS011;20737;49.908;8.126;2022-08-18T03:07:04;8.98;;;8.10;;
34491;SDS011;20737;49.908;8.126;2022-08-18T03:09:32;10.60;;;8.48;;
34491;SDS011;20737;49.908;8.126;2022-08-18T03:12:00;11.27;;;8.52;;
34491;SDS011;20737;49.908;8.126;2022-08-18T03:14:27;9.35;;;7.45;;
34491;SDS011;20737;49.908;8.126;2022-08-18T03:16:54;9.77;;;8.10;;
34491;SDS011;20737;49.908;8.126;2022-08-18T03:19:22;8.95;;;7.75;;
34491;SDS011;20737;49.908;8.126;2022-08-18T03:21:51;10.45;;;8.30;;
34491;SDS011;20737;49.908;8.126;2022-08-18T03:24:19;8.90;;;8.00;;
34491;SDS011;20737;49.908;8.126;2022-08-18T03:26:45;9.57;;;8.50;;
34491;SDS011;20737;49.908;8.126;2022-08-18T03:29:13;10.73;;;8.60;;
34491;SDS011;20737;49.908;8.126;2022-08-18T03:31:40;11.98;;;8.10;;
34491;SDS011;20737;49.908;8.126;2022-08-18T03:34:10;10.57;;;8.68;;
34491;SDS011;20737;49.908;8.126;2022-08-18T03:36:37;10.98;;;8.43;;
34491;SDS011;20737;49.908;8.126;2022-08-18T03:39:06;10.25;;;8.23;;
34491;SDS011;20737;49.908;8.126;2022-08-18T03:41:36;12.38;;;8.90;;
34491;SDS011;20737;49.908;8.126;2022-08-18T03:44:03;9.57;;;7.60;;
34491;SDS011;20737;49.908;8.126;2022-08-18T03:46:30;9.73;;;8.48;;
34491;SDS011;20737;49.908;8.126;2022-08-18T03:48:57;9.88;;;8.07;;
34491;SDS011;20737;49.908;8.126;2022-08-18T03:51:26;8.98;;;8.00;;
34491;SDS011;20737;49.908;8.126;2022-08-18T03:53:56;9.00;;;8.07;;
34491;SDS011;20737;49.908;8.126;2022-08-18T03:56:27;8.20;;;7.40;;
34491;SDS011;20737;49.908;8.126;2022-08-18T03:58:58;9.45;;;7.88;;
34491;SDS011;20737;49.908;8.126;2022-08-18T04:01:27;10.57;;;7.93;;
34491;SDS011;20737;49.908;8.126;2022-08-18T04:03:57;9.13;;;8.13;;
34491;SDS011;20737;49.908;8.126;2022-08-18T04:06:26;8.82;;;7.93;;
34491;SDS011;20737;49.908;8.126;2022-08-18T04:08:56;10.23;;;8.15;;
34491;SDS011;20737;49.908;8.126;2022-08-18T04:11:26;11.40;;;8.13;;
34491;SDS011;20737;49.908;8.126;2022-08-18T04:13:57;9.52;;;8.52;;
34491;SDS011;20737;49.908;8.126;2022-08-18T04:16:23;9.20;;;7.72;;
34491;SDS011;20737;49.908;8.126;2022-08-18T04:18:51;9.50;;;7.93;;
34491;SDS011;20737;49.908;8.126;2022-08-18T04:21:18;8.65;;;7.78;;
34491;SDS011;20737;49.908;8.126;2022-08-18T04:23:44;11.35;;;8.77;;
34491;SDS011;20737;49.908;8.126;2022-08-18T04:26:11;12.00;;;9.55;;
34491;SDS011;20737;49.908;8.126;2022-08-18T04:28:40;10.80;;;8.90;;
34491;SDS011;20737;49.908;8.126;2022-08-18T04:31:08;11.52;;;9.55;;
34491;SDS011;20737;49.908;8.126;2022-08-18T04:33:36;9.57;;;8.18;;
34491;SDS011;20737;49.908;8.126;2022-08-18T04:36:07;11.32;;;9.18;;
34491;SDS011;20737;49.908;8.126;2022-08-18T04:38:35;11.60;;;8.23;;
34491;SDS011;20737;49.908;8.126;2022-08-18T04:41:03;11.82;;;8.88;;
34491;SDS011;20737;49.908;8.126;2022-08-18T04:43:30;10.05;;;8.15;;
34491;SDS011;20737;49.908;8.126;2022-08-18T04:45:59;12.60;;;8.35;;
34491;SDS011;20737;49.908;8.126;2022-08-18T04:48:28;11.30;;;8.40;;
34491;SDS011;20737;49.908;8.126;2022-08-18T04:50:57;15.65;;;10.75;;
34491;SDS011;20737;49.908;8.126;2022-08-18T04:53:28;10.82;;;9.23;;
34491;SDS011;20737;49.908;8.126;2022-08-18T04:56:11;11.57;;;9.07;;
34491;SDS011;20737;49.908;8.126;2022-08-18T04:58:41;9.55;;;8.55;;
34491;SDS011;20737;49.908;8.126;2022-08-18T05:01:09;9.85;;;8.38;;
34491;SDS011;20737;49.908;8.126;2022-08-18T05:03:36;10.48;;;8.98;;
34491;SDS011;20737;49.908;8.126;2022-08-18T05:06:03;10.88;;;8.73;;
34491;SDS011;20737;49.908;8.126;2022-08-18T05:08:32;10.65;;;9.00;;
34491;SDS011;20737;49.908;8.126;2022-08-18T05:10:58;9.63;;;8.63;;
34491;SDS011;20737;49.908;8.126;2022-08-18T05:13:25;8.93;;;8.00;;
34491;SDS011;20737;49.908;8.126;2022-08-18T05:15:52;11.05;;;9.05;;
34491;SDS011;20737;49.908;8.126;2022-08-18T05:18:21;10.10;;;8.93;;
34491;SDS011;20737;49.908;8.126;2022-08-18T05:20:49;12.23;;;8.02;;
34491;SDS011;20737;49.908;8.126;2022-08-18T05:23:16;10.48;;;8.18;;
34491;SDS011;20737;49.908;8.126;2022-08-18T05:25:43;9.70;;;8.77;;
34491;SDS011;20737;49.908;8.126;2022-08-18T05:28:10;10.57;;;7.90;;
34491;SDS011;20737;49.908;8.126;2022-08-18T05:30:38;10.93;;;8.43;;
34491;SDS011;20737;49.908;8.126;2022-08-18T05:33:05;11.77;;;8.90;;
34491;SDS011;20737;49.908;8.126;2022-08-18T05:35:37;9.90;;;8.23;;
34491;SDS011;20737;49.908;8.126;2022-08-18T05:38:19;11.00;;;8.35;;
34491;SDS011;20737;49.908;8.126;2022-08-18T05:40:58;12.30;;;9.88;;
34491;SDS011;20737;49.908;8.126;2022-08-18T05:43:31;10.35;;;9.00;;
34491;SDS011;20737;49.908;8.126;2022-08-18T05:45:58;11.48;;;9.32;;
34491;SDS011;20737;49.908;8.126;2022-08-18T05:48:29;9.98;;;8.80;;
34491;SDS011;20737;49.908;8.126;2022-08-18T05:50:58;10.30;;;8.18;;
34491;SDS011;20737;49.908;8.126;2022-08-18T05:53:35;10.02;;;8.55;;
34491;SDS011;20737;49.908;8.126;2022-08-18T05:56:20;10.70;;;9.23;;
34491;SDS011;20737;49.908;8.126;2022-08-18T05:59:07;9.23;;;8.27;;
34491;SDS011;20737;49.908;8.126;2022-08-18T06:01:37;11.07;;;8.30;;
34491;SDS011;20737;49.908;8.126;2022-08-18T06:04:08;11.80;;;9.07;;
34491;SDS011;20737;49.908;8.126;2022-08-18T06:06:48;10.52;;;8.65;;
34491;SDS011;20737;49.908;8.126;2022-08-18T06:09:18;13.80;;;10.20;;
34491;SDS011;20737;49.908;8.126;2022-08-18T06:14:18;10.02;;;8.52;;
34491;SDS011;20737;49.908;8.126;2022-08-18T06:16:48;10.95;;;9.57;;
34491;SDS011;20737;49.908;8.126;2022-08-18T06:19:28;12.13;;;9.35;;
34491;SDS011;20737;49.908;8.126;2022-08-18T06:22:11;13.70;;;11.00;;
34491;SDS011;20737;49.908;8.126;2022-08-18T06:24:45;12.40;;;10.57;;
34491;SDS011;20737;49.908;8.126;2022-08-18T06:27:21;13.70;;;11.40;;
34491;SDS011;20737;49.908;8.126;2022-08-18T06:29:59;13.13;;;10.98;;
34491;SDS011;20737;49.908;8.126;2022-08-18T06:32:39;15.57;;;11.60;;
34491;SDS011;20737;49.908;8.126;2022-08-18T06:35:28;14.65;;;11.88;;
34491;SDS011;20737;49.908;8.126;2022-08-18T06:38:05;15.43;;;11.45;;
34491;SDS011;20737;49.908;8.126;2022-08-18T06:41:07;15.53;;;11.87;;
34491;SDS011;20737;49.908;8.126;2022-08-18T06:43:37;14.80;;;11.40;;
34491;SDS011;20737;49.908;8.126;2022-08-18T06:46:10;14.93;;;12.07;;
34491;SDS011;20737;49.908;8.126;2022-08-18T06:48:43;19.58;;;12.77;;
34491;SDS011;20737;49.908;8.126;2022-08-18T06:51:16;16.80;;;13.40;;
34491;SDS011;20737;49.908;8.126;2022-08-18T06:53:51;16.65;;;13.25;;
34491;SDS011;20737;49.908;8.126;2022-08-18T06:56:21;17.88;;;13.68;;
34491;SDS011;20737;49.908;8.126;2022-08-18T06:58:50;17.80;;;14.32;;
34491;SDS011;20737;49.908;8.126;2022-08-18T07:01:19;18.20;;;14.20;;
34491;SDS011;20737;49.908;8.126;2022-08-18T07:03:49;20.27;;;14.90;;
34491;SDS011;20737;49.908;8.126;2022-08-18T07:06:28;17.48;;;14.48;;
34491;SDS011;20737;49.908;8.126;2022-08-18T07:11:56;20.27;;;15.40;;
34491;SDS011;20737;49.908;8.126;2022-08-18T07:14:25;21.10;;;15.68;;
34491;SDS011;20737;49.908;8.126;2022-08-18T07:17:04;17.15;;;14.00;;
34491;SDS011;20737;49.908;8.126;2022-08-18T07:19:32;15.77;;;13.15;;
34491;SDS011;20737;49.908;8.126;2022-08-18T07:22:00;18.70;;;13.93;;
34491;SDS011;20737;49.908;8.126;2022-08-18T07:24:32;21.45;;;13.63;;
34491;SDS011;20737;49.908;8.126;2022-08-18T07:27:04;18.08;;;14.13;;
34491;SDS011;20737;49.908;8.126;2022-08-18T07:29:33;18.50;;;13.98;;
34491;SDS011;20737;49.908;8.126;2022-08-18T07:32:03;19.85;;;14.30;;
34491;SDS011;20737;49.908;8.126;2022-08-18T07:34:37;17.95;;;13.80;;
34491;SDS011;20737;49.908;8.126;2022-08-18T07:37:08;20.60;;;15.65;;
34491;SDS011;20737;49.908;8.126;2022-08-18T07:39:44;17.98;;;14.25;;
34491;SDS011;20737;49.908;8.126;2022-08-18T07:42:16;18.00;;;14.70;;
34491;SDS011;20737;49.908;8.126;2022-08-18T07:44:52;18.52;;;15.30;;
34491;SDS011;20737;49.908;8.126;2022-08-18T07:47:24;15.75;;;12.70;;
34491;SDS011;20737;49.908;8.126;2022-08-18T07:52:25;19.25;;;14.88;;
34491;SDS011;20737;49.908;8.126;2022-08-18T07:55:01;17.35;;;15.13;;
34491;SDS011;20737;49.908;8.126;2022-08-18T07:57:36;19.35;;;14.98;;
34491;SDS011;20737;49.908;8.126;2022-08-18T08:00:13;21.73;;;15.25;;
34491;SDS011;20737;49.908;8.126;2022-08-18T08:02:52;19.58;;;14.55;;
34491;SDS011;20737;49.908;8.126;2022-08-18T08:08:19;17.02;;;14.13;;
34491;SDS011;20737;49.908;8.126;2022-08-18T08:10:58;18.30;;;14.43;;
34491;SDS011;20737;49.908;8.126;2022-08-18T08:13:36;20.58;;;14.55;;
34491;SDS011;20737;49.908;8.126;2022-08-18T08:16:12;19.13;;;14.80;;
34491;SDS011;20737;49.908;8.126;2022-08-18T08:18:49;17.15;;;14.55;;
34491;SDS011;20737;49.908;8.126;2022-08-18T08:21:27;18.83;;;14.23;;
34491;SDS011;20737;49.908;8.126;2022-08-18T08:24:01;15.35;;;13.30;;
34491;SDS011;20737;49.908;8.126;2022-08-18T08:26:40;17.23;;;13.65;;
34491;SDS011;20737;49.908;8.126;2022-08-18T08:29:27;16.27;;;13.60;;
34491;SDS011;20737;49.908;8.126;2022-08-18T08:32:01;18.75;;;14.68;;
34491;SDS011;20737;49.908;8.126;2022-08-18T08:34:33;17.95;;;13.65;;
34491;SDS011;20737;49.908;8.126;2022-08-18T08:37:09;14.75;;;13.15;;
34491;SDS011;20737;49.908;8.126;2022-08-18T08:39:40;15.48;;;13.23;;
34491;SDS011;20737;49.908;8.126;2022-08-18T08:42:14;17.70;;;13.52;;
34491;SDS011;20737;49.908;8.126;2022-08-18T08:44:46;18.55;;;13.32;;
34491;SDS011;20737;49.908;8.126;2022-08-18T08:47:16;16.48;;;12.57;;
34491;SDS011;20737;49.908;8.126;2022-08-18T08:49:49;17.98;;;12.43;;
34491;SDS011;20737;49.908;8.126;2022-08-18T08:52:20;13.57;;;11.93;;
34491;SDS011;20737;49.908;8.126;2022-08-18T08:54:53;13.00;;;11.18;;
34491;SDS011;20737;49.908;8.126;2022-08-18T08:57:26;15.85;;;12.57;;
34491;SDS011;20737;49.908;8.126;2022-08-18T08:59:57;15.18;;;13.05;;
34491;SDS011;20737;49.908;8.126;2022-08-18T09:02:33;15.13;;;12.25;;
34491;SDS011;20737;49.908;8.126;2022-08-18T09:07:44;14.48;;;11.73;;
34491;SDS011;20737;49.908;8.126;2022-08-18T09:10:40;15.90;;;12.45;;
34491;SDS011;20737;49.908;8.126;2022-08-18T09:13:27;15.38;;;11.50;;
34491;SDS011;20737;49.908;8.126;2022-08-18T09:16:19;14.23;;;10.73;;
34491;SDS011;20737;49.908;8.126;2022-08-18T09:18:55;13.63;;;11.50;;
34491;SDS011;20737;49.908;8.126;2022-08-18T09:21:38;15.25;;;11.65;;
34491;SDS011;20737;49.908;8.126;2022-08-18T09:24:13;16.80;;;11.90;;
34491;SDS011;20737;49.908;8.126;2022-08-18T09:26:48;15.50;;;11.50;;
34491;SDS011;20737;49.908;8.126;2022-08-18T09:29:20;17.50;;;10.20;;
34491;SDS011;20737;49.908;8.126;2022-08-18T09:35:11;13.68;;;11.18;;
34491;SDS011;20737;49.908;8.126;2022-08-18T09:37:46;14.70;;;12.18;;
34491;SDS011;20737;49.908;8.126;2022-08-18T09:40:43;14.13;;;11.35;;
34491;SDS011;20737;49.908;8.126;2022-08-18T09:43:32;13.48;;;11.40;;
34491;SDS011;20737;49.908;8.126;2022-08-18T09:46:05;13.82;;;11.15;;
34491;SDS011;20737;49.908;8.126;2022-08-18T09:48:33;13.43;;;12.05;;
34491;SDS011;20737;49.908;8.126;2022-08-18T09:54:08;15.93;;;11.18;;
34491;SDS011;20737;49.908;8.126;2022-08-18T10:03:09;13.13;;;10.80;;
34491;SDS011;20737;49.908;8.126;2022-08-18T10:05:54;17.42;;;12.25;;
34491;SDS011;20737;49.908;8.126;2022-08-18T10:08:28;15.73;;;12.82;;
34491;SDS011;20737;49.908;8.126;2022-08-18T10:11:14;14.13;;;12.15;;
34491;SDS011;20737;49.908;8.126;2022-08-18T10:13:49;14.40;;;11.65;;
34491;SDS011;20737;49.908;8.126;2022-08-18T10:16:26;12.43;;;11.13;;
34491;SDS011;20737;49.908;8.126;2022-08-18T10:19:06;13.60;;;11.60;;
34491;SDS011;20737;49.908;8.126;2022-08-18T10:21:59;11.68;;;10.48;;
34491;SDS011;20737;49.908;8.126;2022-08-18T10:24:31;14.00;;;10.40;;
34491;SDS011;20737;49.908;8.126;2022-08-18T10:27:02;12.85;;;10.05;;
34491;SDS011;20737;49.908;8.126;2022-08-18T10:38:20;14.75;;;9.95;;
34491;SDS011;20737;49.908;8.126;2022-08-18T10:40:53;14.63;;;10.85;;
34491;SDS011;20737;49.908;8.126;2022-08-18T10:43:27;12.57;;;10.23;;
34491;SDS011;20737;49.908;8.126;2022-08-18T10:45:59;12.13;;;9.40;;
34491;SDS011;20737;49.908;8.126;2022-08-18T10:48:27;11.13;;;9.82;;
34491;SDS011;20737;49.908;8.126;2022-08-18T10:50:57;13.48;;;10.35;;
34491;SDS011;20737;49.908;8.126;2022-08-18T10:53:30;10.85;;;9.65;;
34491;SDS011;20737;49.908;8.126;2022-08-18T10:56:03;10.40;;;9.32;;
34491;SDS011;20737;49.908;8.126;2022-08-18T10:58:42;14.10;;;10.70;;
34491;SDS011;20737;49.908;8.126;2022-08-18T11:01:25;13.38;;;10.73;;
34491;SDS011;20737;49.908;8.126;2022-08-18T11:04:09;13.35;;;11.63;;
34491;SDS011;20737;49.908;8.126;2022-08-18T11:07:07;18.58;;;11.65;;
34491;SDS011;20737;49.908;8.126;2022-08-18T11:09:37;17.08;;;12.50;;
34491;SDS011;20737;49.908;8.126;2022-08-18T11:12:05;14.55;;;11.60;;
34491;SDS011;20737;49.908;8.126;2022-08-18T11:14:39;13.55;;;11.68;;
34491;SDS011;20737;49.908;8.126;2022-08-18T11:17:25;15.80;;;12.52;;
34491;SDS011;20737;49.908;8.126;2022-08-18T11:20:00;14.95;;;12.75;;
34491;SDS011;20737;49.908;8.126;2022-08-18T11:22:32;14.02;;;11.73;;
34491;SDS011;20737;49.908;8.126;2022-08-18T11:25:02;23.98;;;16.27;;
34491;SDS011;20737;49.908;8.126;2022-08-18T11:27:45;23.05;;;14.60;;
34491;SDS011;20737;49.908;8.126;2022-08-18T11:30:13;31.08;;;16.83;;
34491;SDS011;20737;49.908;8.126;2022-08-18T11:32:40;37.70;;;21.20;;
34491;SDS011;20737;49.908;8.126;2022-08-18T11:35:10;21.92;;;13.88;;
34491;SDS011;20737;49.908;8.126;2022-08-18T11:37:42;17.50;;;14.00;;
34491;SDS011;20737;49.908;8.126;2022-08-18T11:40:19;10.10;;;9.10;;
34491;SDS011;20737;49.908;8.126;2022-08-18T11:42:56;10.80;;;9.80;;
34491;SDS011;20737;49.908;8.126;2022-08-18T11:45:28;11.73;;;9.73;;
34491;SDS011;20737;49.908;8.126;2022-08-18T11:47:59;10.45;;;9.45;;
34491;SDS011;20737;49.908;8.126;2022-08-18T11:50:43;10.20;;;9.25;;
34491;SDS011;20737;49.908;8.126;2022-08-18T11:53:12;10.98;;;10.00;;
34491;SDS011;20737;49.908;8.126;2022-08-18T11:55:44;11.25;;;9.63;;
34491;SDS011;20737;49.908;8.126;2022-08-18T11:58:11;9.48;;;8.68;;
34491;SDS011;20737;49.908;8.126;2022-08-18T12:01:04;7.63;;;7.03;;
34491;SDS011;20737;49.908;8.126;2022-08-18T12:03:36;8.73;;;7.93;;
34491;SDS011;20737;49.908;8.126;2022-08-18T12:06:10;9.98;;;8.73;;
34491;SDS011;20737;49.908;8.126;2022-08-18T12:08:54;8.70;;;7.90;;
34491;SDS011;20737;49.908;8.126;2022-08-18T12:11:26;8.75;;;7.93;;
34491;SDS011;20737;49.908;8.126;2022-08-18T12:14:07;10.88;;;9.77;;
34491;SDS011;20737;49.908;8.126;2022-08-18T12:16:41;8.70;;;7.93;;
34491;SDS011;20737;49.908;8.126;2022-08-18T12:19:09;9.40;;;8.50;;
34491;SDS011;20737;49.908;8.126;2022-08-18T12:21:38;9.88;;;8.75;;
34491;SDS011;20737;49.908;8.126;2022-08-18T12:24:08;8.40;;;7.53;;
34491;SDS011;20737;49.908;8.126;2022-08-18T12:26:45;7.47;;;6.80;;
34491;SDS011;20737;49.908;8.126;2022-08-18T12:29:12;8.80;;;7.95;;
34491;SDS011;20737;49.908;8.126;2022-08-18T12:31:40;7.47;;;6.88;;
34491;SDS011;20737;49.908;8.126;2022-08-18T12:34:07;7.60;;;6.97;;
34491;SDS011;20737;49.908;8.126;2022-08-18T12:36:33;7.82;;;7.13;;
34491;SDS011;20737;49.908;8.126;2022-08-18T12:39:01;7.53;;;6.80;;
34491;SDS011;20737;49.908;8.126;2022-08-18T12:41:28;8.23;;;7.45;;
34491;SDS011;20737;49.908;8.126;2022-08-18T12:43:57;8.40;;;7.50;;
34491;SDS011;20737;49.908;8.126;2022-08-18T12:46:24;8.15;;;7.40;;
34491;SDS011;20737;49.908;8.126;2022-08-18T12:48:51;8.50;;;7.70;;
34491;SDS011;20737;49.908;8.126;2022-08-18T12:51:17;8.45;;;7.57;;
34491;SDS011;20737;49.908;8.126;2022-08-18T12:53:44;7.18;;;6.47;;
34491;SDS011;20737;49.908;8.126;2022-08-18T12:56:14;8.00;;;7.20;;
34491;SDS011;20737;49.908;8.126;2022-08-18T12:58:45;7.30;;;6.60;;
34491;SDS011;20737;49.908;8.126;2022-08-18T13:01:13;7.60;;;6.82;;
34491;SDS011;20737;49.908;8.126;2022-08-18T13:03:40;7.57;;;6.88;;
34491;SDS011;20737;49.908;8.126;2022-08-18T13:06:08;8.55;;;7.85;;
34491;SDS011;20737;49.908;8.126;2022-08-18T13:08:36;8.27;;;7.47;;
34491;SDS011;20737;49.908;8.126;2022-08-18T13:11:03;9.02;;;8.23;;
34491;SDS011;20737;49.908;8.126;2022-08-18T13:13:35;11.35;;;9.13;;
34491;SDS011;20737;49.908;8.126;2022-08-18T13:16:03;9.80;;;8.80;;
34491;SDS011;20737;49.908;8.126;2022-08-18T13:18:31;10.27;;;9.27;;
34491;SDS011;20737;49.908;8.126;2022-08-18T13:20:58;10.30;;;9.38;;
34491;SDS011;20737;49.908;8.126;2022-08-18T13:23:27;9.85;;;8.85;;
34491;SDS011;20737;49.908;8.126;2022-08-18T13:25:54;10.55;;;9.50;;
34491;SDS011;20737;49.908;8.126;2022-08-18T13:28:22;9.88;;;8.88;;
34491;SDS011;20737;49.908;8.126;2022-08-18T13:30:49;10.05;;;9.02;;
34491;SDS011;20737;49.908;8.126;2022-08-18T13:33:18;10.27;;;9.23;;
34491;SDS011;20737;49.908;8.126;2022-08-18T13:35:46;11.93;;;10.32;;
34491;SDS011;20737;49.908;8.126;2022-08-18T13:38:14;11.23;;;10.13;;
34491;SDS011;20737;49.908;8.126;2022-08-18T13:40:44;12.60;;;10.73;;
34491;SDS011;20737;49.908;8.126;2022-08-18T13:43:12;10.48;;;9.38;;
34491;SDS011;20737;49.908;8.126;2022-08-18T13:45:39;11.18;;;10.07;;
34491;SDS011;20737;49.908;8.126;2022-08-18T13:48:07;9.77;;;8.77;;
34491;SDS011;20737;49.908;8.126;2022-08-18T13:50:34;9.88;;;8.88;;
34491;SDS011;20737;49.908;8.126;2022-08-18T13:53:04;10.43;;;9.40;;
34491;SDS011;20737;49.908;8.126;2022-08-18T13:55:31;9.75;;;8.75;;
34491;SDS011;20737;49.908;8.126;2022-08-18T13:57:58;9.77;;;8.77;;
34491;SDS011;20737;49.908;8.126;2022-08-18T14:00:25;9.48;;;8.60;;
34491;SDS011;20737;49.908;8.126;2022-08-18T14:02:53;12.50;;;8.65;;
34491;SDS011;20737;49.908;8.126;2022-08-18T14:05:21;9.52;;;8.60;;
34491;SDS011;20737;49.908;8.126;2022-08-18T14:07:48;10.23;;;9.32;;
34491;SDS011;20737;49.908;8.126;2022-08-18T14:10:16;10.60;;;9.60;;
34491;SDS011;20737;49.908;8.126;2022-08-18T14:12:43;10.38;;;9.38;;
34491;SDS011;20737;49.908;8.126;2022-08-18T14:15:12;10.77;;;9.73;;
34491;SDS011;20737;49.908;8.126;2022-08-18T14:17:40;11.18;;;10.18;;
34491;SDS011;20737;49.908;8.126;2022-08-18T14:20:08;10.23;;;9.05;;
34491;SDS011;20737;49.908;8.126;2022-08-18T14:22:54;10.63;;;9.52;;
34491;SDS011;20737;49.908;8.126;2022-08-18T14:25:42;11.93;;;9.95;;
34491;SDS011;20737;49.908;8.126;2022-08-18T14:28:26;10.70;;;9.65;;
34491;SDS011;20737;49.908;8.126;2022-08-18T14:30:53;11.15;;;10.00;;
34491;SDS011;20737;49.908;8.126;2022-08-18T14:33:21;11.27;;;10.10;;
34491;SDS011;20737;49.908;8.126;2022-08-18T14:35:49;11.90;;;10.50;;
34491;SDS011;20737;49.908;8.126;2022-08-18T14:38:16;12.45;;;11.15;;
34491;SDS011;20737;49.908;8.126;2022-08-18T14:40:45;11.65;;;9.75;;
34491;SDS011;20737;49.908;8.126;2022-08-18T14:43:13;10.73;;;9.63;;
34491;SDS011;20737;49.908;8.126;2022-08-18T14:45:42;13.27;;;10.82;;
34491;SDS011;20737;49.908;8.126;2022-08-18T14:48:11;10.95;;;9.85;;
34491;SDS011;20737;49.908;8.126;2022-08-18T14:50:39;12.88;;;10.43;;
34491;SDS011;20737;49.908;8.126;2022-08-18T14:53:08;11.27;;;9.93;;
34491;SDS011;20737;49.908;8.126;2022-08-18T14:55:37;11.75;;;10.20;;
34491;SDS011;20737;49.908;8.126;2022-08-18T14:58:07;14.05;;;11.00;;
34491;SDS011;20737;49.908;8.126;2022-08-18T15:00:34;11.70;;;10.50;;
34491;SDS011;20737;49.908;8.126;2022-08-18T15:03:01;11.93;;;10.73;;
34491;SDS011;20737;49.908;8.126;2022-08-18T15:05:30;11.32;;;10.23;;
34491;SDS011;20737;49.908;8.126;2022-08-18T15:07:57;12.52;;;11.23;;
34491;SDS011;20737;49.908;8.126;2022-08-18T15:10:27;14.93;;;11.75;;
34491;SDS011;20737;49.908;8.126;2022-08-18T15:12:54;17.63;;;12.50;;
34491;SDS011;20737;49.908;8.126;2022-08-18T15:15:25;14.18;;;11.88;;
34491;SDS011;20737;49.908;8.126;2022-08-18T15:17:58;13.40;;;12.00;;
34491;SDS011;20737;49.908;8.126;2022-08-18T15:20:25;13.95;;;12.25;;
34491;SDS011;20737;49.908;8.126;2022-08-18T15:22:52;14.65;;;12.50;;
34491;SDS011;20737;49.908;8.126;2022-08-18T15:25:37;14.52;;;12.20;;
34491;SDS011;20737;49.908;8.126;2022-08-18T15:28:08;13.90;;;11.93;;
34491;SDS011;20737;49.908;8.126;2022-08-18T15:30:38;15.70;;;13.40;;
34491;SDS011;20737;49.908;8.126;2022-08-18T15:33:06;19.65;;;13.73;;